Terminal Aerodrome Forecast
Issued by NWS Green Bay, WI

Home | Current Version | Previous Version | Text Only | Print | Product List | Glossary On
Versions: 1 2 3 4 5 6 7 8 9 10 11 12 13 14 15 16 17 18 19 20 21 22
000
FTUS43 KGRB 251235 AAB
TAFGRB
TAF AMD
KGRB 251235Z 2513/2612 13010KT P6SM OVC011
     FM251500 15012G18KT P6SM BKN015 OVC040
      TEMPO 2516/2520 4SM -SHRA BR
     FM252100 17014G21KT 4SM SHRA BKN015 OVC025
     FM260200 24011G18KT P6SM SCT015 BKN035=

USA.gov is the U.S. government's official web portal to all federal, state and local government web resources and services.